sensor_id;sensor_type;location;lat;lon;timestamp;P1;durP1;ratioP1;P2;durP2;ratioP2
40997;SDS011;26740;45.944;12.480;2024-02-23T00:02:04;11.52;;;9.85;;
40997;SDS011;26740;45.944;12.480;2024-02-23T00:04:30;13.13;;;10.95;;
40997;SDS011;26740;45.944;12.480;2024-02-23T00:06:56;16.20;;;11.10;;
40997;SDS011;26740;45.944;12.480;2024-02-23T00:09:21;13.10;;;9.57;;
40997;SDS011;26740;45.944;12.480;2024-02-23T00:11:47;13.98;;;10.50;;
40997;SDS011;26740;45.944;12.480;2024-02-23T00:14:15;11.63;;;10.38;;
40997;SDS011;26740;45.944;12.480;2024-02-23T00:16:43;10.13;;;8.93;;
40997;SDS011;26740;45.944;12.480;2024-02-23T00:19:09;16.25;;;10.63;;
40997;SDS011;26740;45.944;12.480;2024-02-23T00:21:38;15.35;;;10.35;;
40997;SDS011;26740;45.944;12.480;2024-02-23T00:24:05;11.23;;;9.90;;
40997;SDS011;26740;45.944;12.480;2024-02-23T00:26:31;11.18;;;10.05;;
40997;SDS011;26740;45.944;12.480;2024-02-23T00:28:57;13.52;;;9.68;;
40997;SDS011;26740;45.944;12.480;2024-02-23T00:31:22;13.23;;;10.52;;
40997;SDS011;26740;45.944;12.480;2024-02-23T00:33:48;11.23;;;9.52;;
40997;SDS011;26740;45.944;12.480;2024-02-23T00:36:14;11.02;;;9.38;;
40997;SDS011;26740;45.944;12.480;2024-02-23T00:38:39;11.77;;;9.02;;
40997;SDS011;26740;45.944;12.480;2024-02-23T00:41:05;11.07;;;9.40;;
40997;SDS011;26740;45.944;12.480;2024-02-23T00:43:37;11.27;;;8.90;;
40997;SDS011;26740;45.944;12.480;2024-02-23T00:46:06;12.48;;;9.38;;
40997;SDS011;26740;45.944;12.480;2024-02-23T00:48:33;9.70;;;8.40;;
40997;SDS011;26740;45.944;12.480;2024-02-23T00:50:58;11.88;;;10.30;;
40997;SDS011;26740;45.944;12.480;2024-02-23T00:53:24;9.98;;;8.95;;
40997;SDS011;26740;45.944;12.480;2024-02-23T00:55:49;12.52;;;9.23;;
40997;SDS011;26740;45.944;12.480;2024-02-23T00:58:15;12.05;;;10.13;;
40997;SDS011;26740;45.944;12.480;2024-02-23T01:00:41;10.77;;;8.85;;
40997;SDS011;26740;45.944;12.480;2024-02-23T01:03:07;10.35;;;9.15;;
40997;SDS011;26740;45.944;12.480;2024-02-23T01:05:32;8.05;;;7.25;;
40997;SDS011;26740;45.944;12.480;2024-02-23T01:07:58;6.97;;;6.28;;
40997;SDS011;26740;45.944;12.480;2024-02-23T01:10:24;5.32;;;4.82;;
40997;SDS011;26740;45.944;12.480;2024-02-23T01:12:49;5.57;;;4.57;;
40997;SDS011;26740;45.944;12.480;2024-02-23T01:15:15;6.22;;;5.25;;
40997;SDS011;26740;45.944;12.480;2024-02-23T01:17:40;4.53;;;3.75;;
40997;SDS011;26740;45.944;12.480;2024-02-23T01:20:06;3.65;;;3.17;;
40997;SDS011;26740;45.944;12.480;2024-02-23T01:22:32;4.15;;;3.28;;
40997;SDS011;26740;45.944;12.480;2024-02-23T01:24:58;4.10;;;3.70;;
40997;SDS011;26740;45.944;12.480;2024-02-23T01:27:23;4.57;;;4.18;;
40997;SDS011;26740;45.944;12.480;2024-02-23T01:29:49;4.88;;;4.38;;
40997;SDS011;26740;45.944;12.480;2024-02-23T01:32:14;3.58;;;3.28;;
40997;SDS011;26740;45.944;12.480;2024-02-23T01:34:40;3.25;;;2.95;;
40997;SDS011;26740;45.944;12.480;2024-02-23T01:37:06;2.60;;;2.40;;
40997;SDS011;26740;45.944;12.480;2024-02-23T01:39:31;2.10;;;2.00;;
40997;SDS011;26740;45.944;12.480;2024-02-23T01:41:57;1.50;;;1.40;;
40997;SDS011;26740;45.944;12.480;2024-02-23T01:44:23;1.50;;;1.40;;
40997;SDS011;26740;45.944;12.480;2024-02-23T01:46:49;1.65;;;1.52;;
40997;SDS011;26740;45.944;12.480;2024-02-23T01:49:15;1.80;;;1.70;;
40997;SDS011;26740;45.944;12.480;2024-02-23T01:51:42;4.00;;;1.15;;
40997;SDS011;26740;45.944;12.480;2024-02-23T01:54:08;0.93;;;0.85;;
40997;SDS011;26740;45.944;12.480;2024-02-23T01:56:34;1.25;;;1.15;;
40997;SDS011;26740;45.944;12.480;2024-02-23T01:59:02;1.50;;;1.40;;
40997;SDS011;26740;45.944;12.480;2024-02-23T02:01:29;2.10;;;1.80;;
40997;SDS011;26740;45.944;12.480;2024-02-23T02:03:55;1.88;;;1.65;;
40997;SDS011;26740;45.944;12.480;2024-02-23T02:06:22;1.50;;;1.40;;
40997;SDS011;26740;45.944;12.480;2024-02-23T02:08:48;2.25;;;2.05;;
40997;SDS011;26740;45.944;12.480;2024-02-23T02:11:14;2.25;;;1.95;;
40997;SDS011;26740;45.944;12.480;2024-02-23T02:13:40;3.53;;;1.63;;
40997;SDS011;26740;45.944;12.480;2024-02-23T02:16:06;2.53;;;2.25;;
40997;SDS011;26740;45.944;12.480;2024-02-23T02:18:31;1.98;;;1.73;;
40997;SDS011;26740;45.944;12.480;2024-02-23T02:20:57;1.67;;;1.48;;
40997;SDS011;26740;45.944;12.480;2024-02-23T02:23:24;2.03;;;1.77;;
40997;SDS011;26740;45.944;12.480;2024-02-23T02:25:55;1.70;;;1.60;;
40997;SDS011;26740;45.944;12.480;2024-02-23T02:28:22;2.97;;;1.30;;
40997;SDS011;26740;45.944;12.480;2024-02-23T02:30:48;1.25;;;1.15;;
40997;SDS011;26740;45.944;12.480;2024-02-23T02:33:14;1.08;;;0.82;;
40997;SDS011;26740;45.944;12.480;2024-02-23T02:35:40;1.10;;;0.82;;
40997;SDS011;26740;45.944;12.480;2024-02-23T02:38:06;1.58;;;0.80;;
40997;SDS011;26740;45.944;12.480;2024-02-23T02:40:32;0.80;;;0.75;;
40997;SDS011;26740;45.944;12.480;2024-02-23T02:42:57;0.75;;;0.60;;
40997;SDS011;26740;45.944;12.480;2024-02-23T02:45:23;1.35;;;0.50;;
40997;SDS011;26740;45.944;12.480;2024-02-23T02:47:49;1.00;;;0.60;;
40997;SDS011;26740;45.944;12.480;2024-02-23T02:50:15;0.65;;;0.52;;
40997;SDS011;26740;45.944;12.480;2024-02-23T02:52:41;1.05;;;0.40;;
40997;SDS011;26740;45.944;12.480;2024-02-23T02:55:07;0.57;;;0.30;;
40997;SDS011;26740;45.944;12.480;2024-02-23T02:57:33;0.57;;;0.35;;
40997;SDS011;26740;45.944;12.480;2024-02-23T03:00:01;0.75;;;0.68;;
40997;SDS011;26740;45.944;12.480;2024-02-23T03:02:30;0.27;;;0.20;;
40997;SDS011;26740;45.944;12.480;2024-02-23T03:05:00;0.47;;;0.30;;
40997;SDS011;26740;45.944;12.480;2024-02-23T03:07:26;0.60;;;0.40;;
40997;SDS011;26740;45.944;12.480;2024-02-23T03:09:51;0.20;;;0.20;;
40997;SDS011;26740;45.944;12.480;2024-02-23T03:12:17;0.47;;;0.28;;
40997;SDS011;26740;45.944;12.480;2024-02-23T03:14:43;0.22;;;0.20;;
40997;SDS011;26740;45.944;12.480;2024-02-23T03:17:09;0.40;;;0.30;;
40997;SDS011;26740;45.944;12.480;2024-02-23T03:19:35;0.10;;;0.10;;
40997;SDS011;26740;45.944;12.480;2024-02-23T03:22:01;0.10;;;0.10;;
40997;SDS011;26740;45.944;12.480;2024-02-23T03:24:27;0.10;;;0.10;;
40997;SDS011;26740;45.944;12.480;2024-02-23T03:26:53;0.13;;;0.10;;
40997;SDS011;26740;45.944;12.480;2024-02-23T03:29:19;0.30;;;0.10;;
40997;SDS011;26740;45.944;12.480;2024-02-23T03:31:45;0.10;;;0.00;;
40997;SDS011;26740;45.944;12.480;2024-02-23T03:34:11;0.73;;;0.05;;
40997;SDS011;26740;45.944;12.480;2024-02-23T03:36:38;0.65;;;0.20;;
40997;SDS011;26740;45.944;12.480;2024-02-23T03:39:03;0.20;;;0.10;;
40997;SDS011;26740;45.944;12.480;2024-02-23T03:41:29;0.70;;;0.38;;
40997;SDS011;26740;45.944;12.480;2024-02-23T03:43:55;0.40;;;0.22;;
40997;SDS011;26740;45.944;12.480;2024-02-23T03:46:20;0.22;;;0.10;;
40997;SDS011;26740;45.944;12.480;2024-02-23T03:48:47;0.20;;;0.10;;
40997;SDS011;26740;45.944;12.480;2024-02-23T03:51:12;0.82;;;0.10;;
40997;SDS011;26740;45.944;12.480;2024-02-23T03:53:38;0.50;;;0.20;;
40997;SDS011;26740;45.944;12.480;2024-02-23T03:56:04;1.15;;;0.55;;
40997;SDS011;26740;45.944;12.480;2024-02-23T03:58:29;2.72;;;1.08;;
40997;SDS011;26740;45.944;12.480;2024-02-23T04:00:55;1.40;;;0.50;;
40997;SDS011;26740;45.944;12.480;2024-02-23T04:03:21;1.75;;;0.40;;
40997;SDS011;26740;45.944;12.480;2024-02-23T04:05:47;0.73;;;0.30;;
40997;SDS011;26740;45.944;12.480;2024-02-23T04:08:12;1.08;;;0.57;;
40997;SDS011;26740;45.944;12.480;2024-02-23T04:10:38;5.22;;;3.78;;
40997;SDS011;26740;45.944;12.480;2024-02-23T04:13:04;2.38;;;1.63;;
40997;SDS011;26740;45.944;12.480;2024-02-23T04:15:29;1.10;;;0.45;;
40997;SDS011;26740;45.944;12.480;2024-02-23T04:17:55;0.30;;;0.20;;
40997;SDS011;26740;45.944;12.480;2024-02-23T04:20:21;2.15;;;0.28;;
40997;SDS011;26740;45.944;12.480;2024-02-23T04:22:46;0.95;;;0.25;;
40997;SDS011;26740;45.944;12.480;2024-02-23T04:25:12;0.68;;;0.20;;
40997;SDS011;26740;45.944;12.480;2024-02-23T04:27:38;0.20;;;0.13;;
40997;SDS011;26740;45.944;12.480;2024-02-23T04:30:04;1.90;;;0.60;;
40997;SDS011;26740;45.944;12.480;2024-02-23T04:32:30;1.05;;;0.60;;
40997;SDS011;26740;45.944;12.480;2024-02-23T04:34:56;0.40;;;0.32;;
40997;SDS011;26740;45.944;12.480;2024-02-23T04:37:22;3.75;;;1.45;;
40997;SDS011;26740;45.944;12.480;2024-02-23T04:39:47;0.50;;;0.22;;
40997;SDS011;26740;45.944;12.480;2024-02-23T04:42:13;1.33;;;0.60;;
40997;SDS011;26740;45.944;12.480;2024-02-23T04:44:41;1.77;;;0.52;;
40997;SDS011;26740;45.944;12.480;2024-02-23T04:47:07;3.70;;;0.38;;
40997;SDS011;26740;45.944;12.480;2024-02-23T04:49:32;1.40;;;1.30;;
40997;SDS011;26740;45.944;12.480;2024-02-23T04:51:58;0.65;;;0.20;;
40997;SDS011;26740;45.944;12.480;2024-02-23T04:54:24;0.70;;;0.50;;
40997;SDS011;26740;45.944;12.480;2024-02-23T04:56:49;0.57;;;0.20;;
40997;SDS011;26740;45.944;12.480;2024-02-23T04:59:15;1.90;;;0.13;;
40997;SDS011;26740;45.944;12.480;2024-02-23T05:01:41;2.50;;;0.20;;
40997;SDS011;26740;45.944;12.480;2024-02-23T05:04:07;0.88;;;0.40;;
40997;SDS011;26740;45.944;12.480;2024-02-23T05:06:33;0.30;;;0.13;;
40997;SDS011;26740;45.944;12.480;2024-02-23T05:09:00;0.55;;;0.20;;
40997;SDS011;26740;45.944;12.480;2024-02-23T05:11:26;0.30;;;0.15;;
40997;SDS011;26740;45.944;12.480;2024-02-23T05:13:52;3.22;;;0.20;;
40997;SDS011;26740;45.944;12.480;2024-02-23T05:16:18;0.57;;;0.20;;
40997;SDS011;26740;45.944;12.480;2024-02-23T05:18:43;0.30;;;0.20;;
40997;SDS011;26740;45.944;12.480;2024-02-23T05:21:11;0.40;;;0.20;;
40997;SDS011;26740;45.944;12.480;2024-02-23T05:23:37;0.98;;;0.20;;
40997;SDS011;26740;45.944;12.480;2024-02-23T05:26:03;0.50;;;0.20;;
40997;SDS011;26740;45.944;12.480;2024-02-23T05:28:29;0.70;;;0.15;;
40997;SDS011;26740;45.944;12.480;2024-02-23T05:30:54;0.50;;;0.17;;
40997;SDS011;26740;45.944;12.480;2024-02-23T05:33:21;0.22;;;0.20;;
40997;SDS011;26740;45.944;12.480;2024-02-23T05:35:49;0.28;;;0.20;;
40997;SDS011;26740;45.944;12.480;2024-02-23T05:38:15;0.60;;;0.20;;
40997;SDS011;26740;45.944;12.480;2024-02-23T05:40:41;0.30;;;0.20;;
40997;SDS011;26740;45.944;12.480;2024-02-23T05:43:06;0.73;;;0.20;;
40997;SDS011;26740;45.944;12.480;2024-02-23T05:45:32;0.65;;;0.13;;
40997;SDS011;26740;45.944;12.480;2024-02-23T05:47:58;0.32;;;0.20;;
40997;SDS011;26740;45.944;12.480;2024-02-23T05:50:24;0.35;;;0.10;;
40997;SDS011;26740;45.944;12.480;2024-02-23T05:52:49;1.25;;;0.25;;
40997;SDS011;26740;45.944;12.480;2024-02-23T05:55:15;0.70;;;0.17;;
40997;SDS011;26740;45.944;12.480;2024-02-23T05:57:41;2.03;;;0.30;;
40997;SDS011;26740;45.944;12.480;2024-02-23T06:00:07;0.85;;;0.30;;
40997;SDS011;26740;45.944;12.480;2024-02-23T06:02:33;0.82;;;0.50;;
40997;SDS011;26740;45.944;12.480;2024-02-23T06:04:59;0.98;;;0.38;;
40997;SDS011;26740;45.944;12.480;2024-02-23T06:07:24;0.80;;;0.52;;
40997;SDS011;26740;45.944;12.480;2024-02-23T06:09:56;1.58;;;0.90;;
40997;SDS011;26740;45.944;12.480;2024-02-23T06:12:22;3.35;;;1.20;;
40997;SDS011;26740;45.944;12.480;2024-02-23T06:14:50;1.67;;;0.73;;
40997;SDS011;26740;45.944;12.480;2024-02-23T06:17:16;2.70;;;0.90;;
40997;SDS011;26740;45.944;12.480;2024-02-23T06:19:42;1.00;;;0.82;;
40997;SDS011;26740;45.944;12.480;2024-02-23T06:22:07;2.25;;;0.60;;
40997;SDS011;26740;45.944;12.480;2024-02-23T06:24:35;3.47;;;1.40;;
40997;SDS011;26740;45.944;12.480;2024-02-23T06:27:01;2.08;;;0.63;;
40997;SDS011;26740;45.944;12.480;2024-02-23T06:29:28;1.95;;;1.10;;
40997;SDS011;26740;45.944;12.480;2024-02-23T06:31:54;1.48;;;0.73;;
40997;SDS011;26740;45.944;12.480;2024-02-23T06:34:20;1.52;;;1.17;;
40997;SDS011;26740;45.944;12.480;2024-02-23T06:36:46;2.70;;;1.05;;
40997;SDS011;26740;45.944;12.480;2024-02-23T06:39:12;1.48;;;1.00;;
40997;SDS011;26740;45.944;12.480;2024-02-23T06:41:38;1.98;;;0.70;;
40997;SDS011;26740;45.944;12.480;2024-02-23T06:44:04;1.38;;;0.77;;
40997;SDS011;26740;45.944;12.480;2024-02-23T06:46:30;2.08;;;1.20;;
40997;SDS011;26740;45.944;12.480;2024-02-23T06:48:56;1.77;;;1.30;;
40997;SDS011;26740;45.944;12.480;2024-02-23T06:51:21;1.75;;;1.00;;
40997;SDS011;26740;45.944;12.480;2024-02-23T06:53:47;1.58;;;0.80;;
40997;SDS011;26740;45.944;12.480;2024-02-23T06:56:13;2.35;;;1.08;;
40997;SDS011;26740;45.944;12.480;2024-02-23T06:58:38;1.55;;;0.90;;
40997;SDS011;26740;45.944;12.480;2024-02-23T07:01:05;2.75;;;1.08;;
40997;SDS011;26740;45.944;12.480;2024-02-23T07:03:36;1.38;;;0.77;;
40997;SDS011;26740;45.944;12.480;2024-02-23T07:06:02;1.42;;;1.08;;
40997;SDS011;26740;45.944;12.480;2024-02-23T07:08:28;1.77;;;0.82;;
40997;SDS011;26740;45.944;12.480;2024-02-23T07:10:55;1.48;;;0.60;;
40997;SDS011;26740;45.944;12.480;2024-02-23T07:13:20;0.90;;;0.28;;
40997;SDS011;26740;45.944;12.480;2024-02-23T07:15:46;0.98;;;0.43;;
40997;SDS011;26740;45.944;12.480;2024-02-23T07:18:12;1.27;;;0.93;;
40997;SDS011;26740;45.944;12.480;2024-02-23T07:20:37;2.75;;;0.60;;
40997;SDS011;26740;45.944;12.480;2024-02-23T07:23:04;1.13;;;0.40;;
40997;SDS011;26740;45.944;12.480;2024-02-23T07:25:30;2.00;;;0.43;;
40997;SDS011;26740;45.944;12.480;2024-02-23T07:27:56;1.10;;;0.40;;
40997;SDS011;26740;45.944;12.480;2024-02-23T07:30:21;1.48;;;0.50;;
40997;SDS011;26740;45.944;12.480;2024-02-23T07:32:47;1.38;;;0.50;;
40997;SDS011;26740;45.944;12.480;2024-02-23T07:35:13;1.83;;;0.73;;
40997;SDS011;26740;45.944;12.480;2024-02-23T07:37:39;3.10;;;0.60;;
40997;SDS011;26740;45.944;12.480;2024-02-23T07:40:05;1.48;;;0.57;;
40997;SDS011;26740;45.944;12.480;2024-02-23T07:42:34;2.28;;;0.70;;
40997;SDS011;26740;45.944;12.480;2024-02-23T07:45:06;1.67;;;0.60;;
40997;SDS011;26740;45.944;12.480;2024-02-23T07:47:32;0.88;;;0.30;;
40997;SDS011;26740;45.944;12.480;2024-02-23T07:49:58;0.88;;;0.60;;
40997;SDS011;26740;45.944;12.480;2024-02-23T07:52:24;1.42;;;0.40;;
40997;SDS011;26740;45.944;12.480;2024-02-23T07:54:51;1.83;;;0.68;;
40997;SDS011;26740;45.944;12.480;2024-02-23T07:57:18;2.38;;;0.60;;
40997;SDS011;26740;45.944;12.480;2024-02-23T07:59:44;1.58;;;0.77;;
40997;SDS011;26740;45.944;12.480;2024-02-23T08:02:09;1.40;;;0.57;;
40997;SDS011;26740;45.944;12.480;2024-02-23T08:04:36;2.72;;;0.95;;
40997;SDS011;26740;45.944;12.480;2024-02-23T08:07:03;0.55;;;0.30;;
40997;SDS011;26740;45.944;12.480;2024-02-23T08:09:29;1.05;;;0.30;;
40997;SDS011;26740;45.944;12.480;2024-02-23T08:11:55;1.10;;;0.40;;
40997;SDS011;26740;45.944;12.480;2024-02-23T08:14:21;0.60;;;0.25;;
40997;SDS011;26740;45.944;12.480;2024-02-23T08:16:46;0.82;;;0.30;;
40997;SDS011;26740;45.944;12.480;2024-02-23T08:19:12;0.50;;;0.28;;
40997;SDS011;26740;45.944;12.480;2024-02-23T08:21:37;0.57;;;0.20;;
40997;SDS011;26740;45.944;12.480;2024-02-23T08:24:04;0.85;;;0.40;;
40997;SDS011;26740;45.944;12.480;2024-02-23T08:26:30;0.50;;;0.25;;
40997;SDS011;26740;45.944;12.480;2024-02-23T08:28:56;1.40;;;0.40;;
40997;SDS011;26740;45.944;12.480;2024-02-23T08:31:21;1.70;;;0.40;;
40997;SDS011;26740;45.944;12.480;2024-02-23T08:33:47;0.90;;;0.30;;
40997;SDS011;26740;45.944;12.480;2024-02-23T08:36:12;0.50;;;0.30;;
40997;SDS011;26740;45.944;12.480;2024-02-23T08:38:38;1.38;;;0.40;;
40997;SDS011;26740;45.944;12.480;2024-02-23T08:41:04;0.40;;;0.30;;
40997;SDS011;26740;45.944;12.480;2024-02-23T08:43:29;0.70;;;0.22;;
40997;SDS011;26740;45.944;12.480;2024-02-23T08:45:55;0.43;;;0.30;;
40997;SDS011;26740;45.944;12.480;2024-02-23T08:48:21;0.68;;;0.20;;
40997;SDS011;26740;45.944;12.480;2024-02-23T08:50:46;1.55;;;0.28;;
40997;SDS011;26740;45.944;12.480;2024-02-23T08:53:12;0.60;;;0.30;;
40997;SDS011;26740;45.944;12.480;2024-02-23T08:55:38;1.95;;;0.35;;
40997;SDS011;26740;45.944;12.480;2024-02-23T08:58:03;1.85;;;0.30;;
40997;SDS011;26740;45.944;12.480;2024-02-23T09:00:31;2.13;;;0.40;;
40997;SDS011;26740;45.944;12.480;2024-02-23T09:02:57;1.70;;;0.30;;
40997;SDS011;26740;45.944;12.480;2024-02-23T09:05:22;1.30;;;0.22;;
40997;SDS011;26740;45.944;12.480;2024-02-23T09:07:48;0.50;;;0.40;;
40997;SDS011;26740;45.944;12.480;2024-02-23T09:10:14;1.40;;;0.40;;
40997;SDS011;26740;45.944;12.480;2024-02-23T09:12:39;0.80;;;0.30;;
40997;SDS011;26740;45.944;12.480;2024-02-23T09:15:05;2.60;;;0.28;;
40997;SDS011;26740;45.944;12.480;2024-02-23T09:17:31;0.57;;;0.30;;
40997;SDS011;26740;45.944;12.480;2024-02-23T09:19:57;0.93;;;0.28;;
40997;SDS011;26740;45.944;12.480;2024-02-23T09:22:22;1.75;;;0.20;;
40997;SDS011;26740;45.944;12.480;2024-02-23T09:24:48;0.40;;;0.30;;
40997;SDS011;26740;45.944;12.480;2024-02-23T09:27:14;0.85;;;0.40;;
40997;SDS011;26740;45.944;12.480;2024-02-23T09:29:40;0.90;;;0.30;;
40997;SDS011;26740;45.944;12.480;2024-02-23T09:32:09;1.48;;;0.40;;
40997;SDS011;26740;45.944;12.480;2024-02-23T09:34:35;0.68;;;0.28;;
40997;SDS011;26740;45.944;12.480;2024-02-23T09:37:01;0.95;;;0.20;;
40997;SDS011;26740;45.944;12.480;2024-02-23T09:39:26;2.15;;;0.50;;
40997;SDS011;26740;45.944;12.480;2024-02-23T09:41:55;0.88;;;0.38;;
40997;SDS011;26740;45.944;12.480;2024-02-23T09:44:22;1.45;;;0.38;;
40997;SDS011;26740;45.944;12.480;2024-02-23T09:46:48;1.55;;;0.40;;
40997;SDS011;26740;45.944;12.480;2024-02-23T09:49:14;0.30;;;0.20;;
40997;SDS011;26740;45.944;12.480;2024-02-23T09:51:44;0.60;;;0.40;;
40997;SDS011;26740;45.944;12.480;2024-02-23T09:54:10;1.13;;;0.30;;
40997;SDS011;26740;45.944;12.480;2024-02-23T09:56:36;1.00;;;0.40;;
40997;SDS011;26740;45.944;12.480;2024-02-23T09:59:02;0.82;;;0.50;;
40997;SDS011;26740;45.944;12.480;2024-02-23T10:01:30;1.50;;;0.50;;
40997;SDS011;26740;45.944;12.480;2024-02-23T10:03:58;2.78;;;0.85;;
40997;SDS011;26740;45.944;12.480;2024-02-23T10:06:25;2.58;;;1.58;;
40997;SDS011;26740;45.944;12.480;2024-02-23T10:08:51;1.13;;;0.60;;
40997;SDS011;26740;45.944;12.480;2024-02-23T10:11:22;2.13;;;0.88;;
40997;SDS011;26740;45.944;12.480;2024-02-23T10:16:17;2.83;;;0.65;;
40997;SDS011;26740;45.944;12.480;2024-02-23T10:18:46;0.82;;;0.40;;
40997;SDS011;26740;45.944;12.480;2024-02-23T10:21:14;1.90;;;0.80;;
40997;SDS011;26740;45.944;12.480;2024-02-23T10:23:40;1.10;;;0.80;;
40997;SDS011;26740;45.944;12.480;2024-02-23T10:26:07;3.13;;;1.05;;
40997;SDS011;26740;45.944;12.480;2024-02-23T10:28:36;3.55;;;1.05;;
40997;SDS011;26740;45.944;12.480;2024-02-23T10:31:06;4.90;;;0.55;;
40997;SDS011;26740;45.944;12.480;2024-02-23T10:33:32;1.30;;;0.57;;
40997;SDS011;26740;45.944;12.480;2024-02-23T10:35:58;2.35;;;0.70;;
40997;SDS011;26740;45.944;12.480;2024-02-23T10:38:29;1.20;;;0.57;;
40997;SDS011;26740;45.944;12.480;2024-02-23T10:40:57;0.93;;;0.50;;
40997;SDS011;26740;45.944;12.480;2024-02-23T10:46:18;0.88;;;0.30;;
40997;SDS011;26740;45.944;12.480;2024-02-23T10:48:45;1.60;;;0.75;;
40997;SDS011;26740;45.944;12.480;2024-02-23T10:51:12;1.55;;;1.05;;
40997;SDS011;26740;45.944;12.480;2024-02-23T10:53:39;1.73;;;0.50;;
40997;SDS011;26740;45.944;12.480;2024-02-23T10:56:06;2.25;;;0.50;;
40997;SDS011;26740;45.944;12.480;2024-02-23T10:58:33;3.38;;;0.40;;
40997;SDS011;26740;45.944;12.480;2024-02-23T11:00:59;1.88;;;0.68;;
40997;SDS011;26740;45.944;12.480;2024-02-23T11:03:29;1.50;;;0.70;;
40997;SDS011;26740;45.944;12.480;2024-02-23T11:05:56;1.30;;;0.60;;
40997;SDS011;26740;45.944;12.480;2024-02-23T11:08:22;3.53;;;0.55;;
40997;SDS011;26740;45.944;12.480;2024-02-23T11:10:51;2.72;;;0.30;;
40997;SDS011;26740;45.944;12.480;2024-02-23T11:13:17;1.33;;;0.40;;
40997;SDS011;26740;45.944;12.480;2024-02-23T11:15:43;3.20;;;0.60;;
40997;SDS011;26740;45.944;12.480;2024-02-23T11:21:09;2.55;;;0.70;;
40997;SDS011;26740;45.944;12.480;2024-02-23T11:23:39;1.42;;;0.50;;
40997;SDS011;26740;45.944;12.480;2024-02-23T11:26:15;1.03;;;0.30;;
40997;SDS011;26740;45.944;12.480;2024-02-23T11:28:50;0.77;;;0.45;;
40997;SDS011;26740;45.944;12.480;2024-02-23T11:31:19;3.85;;;0.50;;
40997;SDS011;26740;45.944;12.480;2024-02-23T11:33:52;2.67;;;0.30;;
40997;SDS011;26740;45.944;12.480;2024-02-23T11:36:23;1.08;;;0.57;;
40997;SDS011;26740;45.944;12.480;2024-02-23T11:38:52;4.43;;;0.70;;
40997;SDS011;26740;45.944;12.480;2024-02-23T11:41:20;4.50;;;0.50;;
40997;SDS011;26740;45.944;12.480;2024-02-23T11:43:47;4.07;;;1.30;;
40997;SDS011;26740;45.944;12.480;2024-02-23T11:46:14;3.58;;;1.73;;
40997;SDS011;26740;45.944;12.480;2024-02-23T11:48:43;2.05;;;1.02;;
40997;SDS011;26740;45.944;12.480;2024-02-23T11:51:14;1.40;;;0.60;;
40997;SDS011;26740;45.944;12.480;2024-02-23T11:53:41;2.22;;;1.02;;
40997;SDS011;26740;45.944;12.480;2024-02-23T11:56:07;2.05;;;0.70;;
40997;SDS011;26740;45.944;12.480;2024-02-23T11:58:33;0.77;;;0.50;;
40997;SDS011;26740;45.944;12.480;2024-02-23T12:01:02;2.63;;;1.13;;
40997;SDS011;26740;45.944;12.480;2024-02-23T12:03:29;1.83;;;0.70;;
40997;SDS011;26740;45.944;12.480;2024-02-23T12:05:57;3.67;;;1.23;;
40997;SDS011;26740;45.944;12.480;2024-02-23T12:08:24;1.33;;;1.08;;
40997;SDS011;26740;45.944;12.480;2024-02-23T12:10:51;2.17;;;0.90;;
40997;SDS011;26740;45.944;12.480;2024-02-23T12:13:19;4.95;;;2.08;;
40997;SDS011;26740;45.944;12.480;2024-02-23T12:15:44;3.83;;;1.35;;
40997;SDS011;26740;45.944;12.480;2024-02-23T12:18:10;3.55;;;1.00;;
40997;SDS011;26740;45.944;12.480;2024-02-23T12:20:36;3.22;;;1.17;;
40997;SDS011;26740;45.944;12.480;2024-02-23T12:23:02;4.32;;;1.25;;
40997;SDS011;26740;45.944;12.480;2024-02-23T12:25:28;3.47;;;1.55;;
40997;SDS011;26740;45.944;12.480;2024-02-23T12:27:54;2.17;;;0.73;;
40997;SDS011;26740;45.944;12.480;2024-02-23T12:30:22;3.53;;;1.20;;
40997;SDS011;26740;45.944;12.480;2024-02-23T12:32:47;2.28;;;1.02;;
40997;SDS011;26740;45.944;12.480;2024-02-23T12:35:14;2.63;;;1.40;;
40997;SDS011;26740;45.944;12.480;2024-02-23T12:37:42;4.07;;;1.50;;
40997;SDS011;26740;45.944;12.480;2024-02-23T12:40:08;3.15;;;1.85;;
40997;SDS011;26740;45.944;12.480;2024-02-23T12:42:34;3.30;;;1.42;;
40997;SDS011;26740;45.944;12.480;2024-02-23T12:45:00;5.25;;;1.77;;
40997;SDS011;26740;45.944;12.480;2024-02-23T12:47:26;2.58;;;1.80;;
40997;SDS011;26740;45.944;12.480;2024-02-23T12:49:52;3.10;;;1.50;;
40997;SDS011;26740;45.944;12.480;2024-02-23T12:52:17;2.33;;;1.77;;
40997;SDS011;26740;45.944;12.480;2024-02-23T12:54:43;2.35;;;1.30;;
40997;SDS011;26740;45.944;12.480;2024-02-23T12:57:09;5.43;;;2.25;;
40997;SDS011;26740;45.944;12.480;2024-02-23T12:59:34;2.90;;;1.70;;
40997;SDS011;26740;45.944;12.480;2024-02-23T13:02:00;2.45;;;1.30;;
40997;SDS011;26740;45.944;12.480;2024-02-23T13:04:25;5.90;;;2.10;;
40997;SDS011;26740;45.944;12.480;2024-02-23T13:06:51;4.28;;;2.30;;
40997;SDS011;26740;45.944;12.480;2024-02-23T13:09:19;4.93;;;2.15;;
40997;SDS011;26740;45.944;12.480;2024-02-23T13:11:44;5.10;;;2.75;;
40997;SDS011;26740;45.944;12.480;2024-02-23T13:14:11;4.68;;;3.40;;
40997;SDS011;26740;45.944;12.480;2024-02-23T13:16:36;4.07;;;3.55;;
40997;SDS011;26740;45.944;12.480;2024-02-23T13:19:02;6.18;;;2.83;;
40997;SDS011;26740;45.944;12.480;2024-02-23T13:21:27;6.72;;;3.10;;
40997;SDS011;26740;45.944;12.480;2024-02-23T13:23:54;6.07;;;3.10;;
40997;SDS011;26740;45.944;12.480;2024-02-23T13:26:19;7.20;;;3.25;;
40997;SDS011;26740;45.944;12.480;2024-02-23T13:28:46;17.20;;;3.92;;
40997;SDS011;26740;45.944;12.480;2024-02-23T13:31:11;8.48;;;2.65;;
40997;SDS011;26740;45.944;12.480;2024-02-23T13:33:38;5.97;;;3.67;;
40997;SDS011;26740;45.944;12.480;2024-02-23T13:36:04;4.45;;;2.83;;
40997;SDS011;26740;45.944;12.480;2024-02-23T13:38:30;8.10;;;2.65;;
40997;SDS011;26740;45.944;12.480;2024-02-23T13:40:56;4.43;;;3.40;;
40997;SDS011;26740;45.944;12.480;2024-02-23T13:43:21;6.65;;;2.72;;
40997;SDS011;26740;45.944;12.480;2024-02-23T13:45:50;4.97;;;2.85;;
40997;SDS011;26740;45.944;12.480;2024-02-23T13:50:44;9.15;;;3.28;;
40997;SDS011;26740;45.944;12.480;2024-02-23T13:53:11;10.52;;;3.83;;
40997;SDS011;26740;45.944;12.480;2024-02-23T13:55:37;14.10;;;4.50;;
40997;SDS011;26740;45.944;12.480;2024-02-23T13:58:03;7.15;;;3.75;;
40997;SDS011;26740;45.944;12.480;2024-02-23T14:02:54;9.30;;;2.92;;
40997;SDS011;26740;45.944;12.480;2024-02-23T14:05:20;8.07;;;2.28;;
40997;SDS011;26740;45.944;12.480;2024-02-23T14:07:47;8.15;;;2.92;;
40997;SDS011;26740;45.944;12.480;2024-02-23T14:10:13;3.38;;;2.70;;
40997;SDS011;26740;45.944;12.480;2024-02-23T14:12:39;13.13;;;4.07;;
40997;SDS011;26740;45.944;12.480;2024-02-23T14:15:06;5.57;;;2.78;;
40997;SDS011;26740;45.944;12.480;2024-02-23T14:17:32;4.68;;;3.15;;
40997;SDS011;26740;45.944;12.480;2024-02-23T14:19:59;7.80;;;3.60;;
40997;SDS011;26740;45.944;12.480;2024-02-23T14:22:25;8.07;;;4.25;;
40997;SDS011;26740;45.944;12.480;2024-02-23T14:24:53;3.47;;;2.40;;
40997;SDS011;26740;45.944;12.480;2024-02-23T14:27:18;6.03;;;1.95;;
40997;SDS011;26740;45.944;12.480;2024-02-23T14:29:44;2.78;;;1.98;;
40997;SDS011;26740;45.944;12.480;2024-02-23T14:32:14;2.58;;;1.83;;
40997;SDS011;26740;45.944;12.480;2024-02-23T14:34:41;4.28;;;1.63;;
40997;SDS011;26740;45.944;12.480;2024-02-23T14:37:07;4.93;;;2.13;;
40997;SDS011;26740;45.944;12.480;2024-02-23T14:39:32;3.80;;;1.73;;
40997;SDS011;26740;45.944;12.480;2024-02-23T14:41:58;7.55;;;2.15;;